KRNP

Owosso Community Airport

Owosso, Michigan, USA
METAR KRNP 231055Z AUTO 00000KT 3/4SM BR VV005 10/10 A3014 RMK AO2 T01010101
Observed Flight Rules
May-23 @ 10:55 UTC (10 minutes ago) Instrument Flight Rules
Visibility Clouds Conditions
3/4 miles
  • Vertical visibility at 500' AGL
  • Mist
Temperatures Readings
Current 10°C / 50°F
Dewpoint 10°C / 50°F
Humidity 100%
Altimeter 30.14" Hg
Pressure 1021 hPa
Elevation 224
METAR KRNP 231055Z AUTO 00000KT 3/4SM BR VV005 10/10 A3014 RMK AO2 T01010101
Observed Flight Rules
May-23 @ 10:55 UTC
(10 minutes ago)
LIFR
Clouds
  • Vertical visibility at 500' AGL
Conditions
  • Mist
Temperature Dewpoint
10°C / 50°F 10°C / 50°F
Humidity Altimeter Pressure
100% 30.14" Hg 1021 hPa